createdAt,value
2022-10-18T00:02:00.061Z,15.08
2022-10-18T00:04:33.357Z,15.07
2022-10-18T00:07:06.237Z,15.10
2022-10-18T00:09:39.352Z,15.11
2022-10-18T00:12:13.548Z,15.16
2022-10-18T00:14:46.343Z,15.20
2022-10-18T00:17:19.410Z,15.24
2022-10-18T00:19:52.341Z,15.29
2022-10-18T00:22:25.459Z,15.33
2022-10-18T00:24:58.381Z,15.37
2022-10-18T00:27:32.677Z,15.41
2022-10-18T00:30:06.872Z,15.40
2022-10-18T00:32:40.288Z,15.40
2022-10-18T00:35:13.102Z,15.41
2022-10-18T00:37:45.849Z,15.39
2022-10-18T00:40:18.979Z,15.36
2022-10-18T00:42:53.188Z,15.37
2022-10-18T00:45:26.296Z,15.34
2022-10-18T00:48:02.355Z,15.33
2022-10-18T00:50:36.318Z,15.31
2022-10-18T00:53:14.005Z,15.31
2022-10-18T00:55:47.554Z,15.30
2022-10-18T00:58:21.769Z,15.32
2022-10-18T01:00:54.612Z,15.30
2022-10-18T01:03:27.647Z,15.31
2022-10-18T01:06:00.675Z,15.31
2022-10-18T01:08:46.416Z,15.34
2022-10-18T01:11:32.842Z,15.33
2022-10-18T01:14:19.796Z,15.35
2022-10-18T01:17:01.852Z,15.37
2022-10-18T01:20:19.655Z,15.39
2022-10-18T01:22:57.986Z,15.42
2022-10-18T01:25:41.998Z,15.46
2022-10-18T01:28:29.952Z,15.50
2022-10-18T01:31:06.183Z,15.53
2022-10-18T01:33:42.580Z,15.58
2022-10-18T01:36:20.805Z,15.63
2022-10-18T01:38:58.598Z,15.67
2022-10-18T01:41:31.775Z,15.70
2022-10-18T01:44:08.405Z,15.73
2022-10-18T01:46:45.191Z,15.76
2022-10-18T01:49:18.079Z,15.75
2022-10-18T01:51:50.854Z,15.76
2022-10-18T01:54:30.788Z,15.81
2022-10-18T01:57:10.544Z,15.80
2022-10-18T01:59:53.105Z,15.83
2022-10-18T02:02:40.908Z,15.87
2022-10-18T02:05:22.687Z,15.90
2022-10-18T02:08:12.193Z,15.92
2022-10-18T02:10:56.952Z,16.01
2022-10-18T02:13:35.405Z,16.04
2022-10-18T02:16:12.049Z,16.08
2022-10-18T02:18:52.296Z,16.09
2022-10-18T02:21:28.769Z,16.12
2022-10-18T02:24:03.833Z,16.16
2022-10-18T02:26:37.234Z,16.18
2022-10-18T02:29:10.535Z,16.18
2022-10-18T02:31:46.117Z,16.22
2022-10-18T02:34:23.453Z,16.24
2022-10-18T02:36:59.423Z,16.25
2022-10-18T02:39:35.326Z,16.24
2022-10-18T02:42:10.979Z,16.21
2022-10-18T02:44:44.058Z,16.17
2022-10-18T02:47:16.918Z,16.14
2022-10-18T02:49:51.144Z,16.10
2022-10-18T02:52:24.051Z,16.07
2022-10-18T02:54:56.879Z,16.01
2022-10-18T02:57:30.467Z,15.98
2022-10-18T03:00:03.775Z,15.96
2022-10-18T03:02:36.649Z,15.93
2022-10-18T03:05:11.309Z,15.93
2022-10-18T03:07:44.214Z,15.92
2022-10-18T03:10:17.039Z,15.88
2022-10-18T03:12:49.928Z,15.85
2022-10-18T03:15:22.726Z,15.84
2022-10-18T03:17:55.558Z,15.83
2022-10-18T03:20:30.022Z,15.82
2022-10-18T03:23:03.343Z,15.81
2022-10-18T03:25:36.152Z,15.81
2022-10-18T03:28:08.964Z,15.82
2022-10-18T03:30:41.869Z,15.82
2022-10-18T03:33:14.802Z,15.83
2022-10-18T03:35:48.992Z,15.84
2022-10-18T03:38:21.898Z,15.83
2022-10-18T03:40:54.814Z,15.84
2022-10-18T03:43:27.593Z,15.84
2022-10-18T03:46:01.571Z,15.86
2022-10-18T03:48:34.474Z,15.86
2022-10-18T03:51:08.812Z,15.86
2022-10-18T03:53:41.725Z,15.84
2022-10-18T03:56:14.671Z,15.82
2022-10-18T03:58:47.616Z,15.79
2022-10-18T04:01:20.794Z,15.76
2022-10-18T04:03:53.916Z,15.72
2022-10-18T04:06:28.091Z,15.69
2022-10-18T04:09:02.299Z,15.62
2022-10-18T04:11:37.028Z,15.58
2022-10-18T04:14:09.972Z,15.54
2022-10-18T04:16:42.856Z,15.47
2022-10-18T04:19:15.986Z,15.42
2022-10-18T04:21:50.416Z,15.39
2022-10-18T04:24:23.302Z,15.33
2022-10-18T04:26:56.427Z,15.28
2022-10-18T04:29:29.256Z,15.24
2022-10-18T04:32:02.351Z,15.19
2022-10-18T04:34:35.197Z,15.15
2022-10-18T04:37:09.583Z,15.09
2022-10-18T04:39:49.821Z,15.05
2022-10-18T04:42:25.973Z,14.98
2022-10-18T04:44:58.880Z,14.95
2022-10-18T04:47:31.921Z,14.90
2022-10-18T04:50:06.359Z,14.84
2022-10-18T04:52:40.591Z,14.80
2022-10-18T04:55:13.472Z,14.75
2022-10-18T04:57:46.500Z,14.71
2022-10-18T05:00:19.718Z,14.68
2022-10-18T05:02:57.440Z,14.67
2022-10-18T05:05:49.788Z,14.63
2022-10-18T05:08:24.633Z,14.64
2022-10-18T05:10:57.499Z,14.59
2022-10-18T05:13:31.123Z,14.57
2022-10-18T05:16:04.041Z,14.58
2022-10-18T05:18:36.843Z,14.57
2022-10-18T05:21:09.772Z,14.59
2022-10-18T05:23:44.048Z,14.62
2022-10-18T05:26:16.884Z,14.66
2022-10-18T05:28:50.875Z,14.69
2022-10-18T05:31:23.768Z,14.75
2022-10-18T05:33:56.590Z,14.83
2022-10-18T05:36:29.583Z,14.92
2022-10-18T05:39:05.841Z,15.00
2022-10-18T05:41:38.627Z,15.08
2022-10-18T05:44:11.501Z,15.16
2022-10-18T05:46:44.355Z,15.23
2022-10-18T05:49:17.230Z,15.30
2022-10-18T05:51:50.309Z,15.35
2022-10-18T05:54:24.491Z,15.42
2022-10-18T05:56:57.271Z,15.46
2022-10-18T05:59:30.115Z,15.49
2022-10-18T06:02:03.536Z,15.54
2022-10-18T06:04:36.334Z,15.54
2022-10-18T06:07:10.367Z,15.55
2022-10-18T06:09:44.550Z,15.53
2022-10-18T06:12:17.405Z,15.51
2022-10-18T06:14:50.350Z,15.46
2022-10-18T06:17:23.216Z,15.42
2022-10-18T06:19:56.079Z,15.38
2022-10-18T06:22:28.916Z,15.36
2022-10-18T06:25:03.189Z,15.36
2022-10-18T06:27:36.120Z,15.33
2022-10-18T06:30:10.445Z,15.33
2022-10-18T06:32:43.302Z,15.34
2022-10-18T06:35:16.294Z,15.33
2022-10-18T06:37:49.105Z,15.33
2022-10-18T06:40:23.357Z,15.38
2022-10-18T06:43:00.623Z,15.39
2022-10-18T06:45:43.421Z,15.42
2022-10-18T06:48:16.320Z,15.46
2022-10-18T06:50:53.723Z,15.54
2022-10-18T06:53:27.274Z,15.56
2022-10-18T06:56:02.866Z,15.64
2022-10-18T06:58:36.647Z,15.67
2022-10-18T07:01:10.910Z,15.74
2022-10-18T07:03:45.109Z,15.82
2022-10-18T07:06:19.687Z,15.91
2022-10-18T07:08:54.227Z,15.99
2022-10-18T07:11:28.779Z,16.08
2022-10-18T07:14:04.808Z,16.16
2022-10-18T07:16:37.726Z,16.26
2022-10-18T07:19:10.587Z,16.36
2022-10-18T07:21:43.544Z,16.45
2022-10-18T07:24:16.395Z,16.56
2022-10-18T07:26:50.567Z,16.67
2022-10-18T07:29:23.407Z,16.77
2022-10-18T07:31:56.222Z,16.87
2022-10-18T07:34:29.089Z,16.98
2022-10-18T07:37:02.918Z,17.09
2022-10-18T07:39:35.718Z,17.20
2022-10-18T07:42:09.933Z,17.34
2022-10-18T07:44:42.730Z,17.44
2022-10-18T07:47:16.327Z,17.57
2022-10-18T07:49:49.074Z,17.67
2022-10-18T07:52:21.909Z,17.81
2022-10-18T07:54:54.740Z,17.94
2022-10-18T07:57:29.443Z,18.09
2022-10-18T08:00:02.338Z,18.23
2022-10-18T08:02:35.329Z,18.37
2022-10-18T08:05:08.716Z,18.53
2022-10-18T08:07:41.601Z,18.67
2022-10-18T08:10:14.577Z,18.80
2022-10-18T08:12:48.874Z,18.95
2022-10-18T08:15:25.121Z,19.06
2022-10-18T08:17:58.076Z,19.18
2022-10-18T08:20:33.243Z,19.29
2022-10-18T08:23:06.298Z,19.39
2022-10-18T08:25:39.197Z,19.47
2022-10-18T08:28:13.863Z,19.56
2022-10-18T08:30:46.819Z,19.63
2022-10-18T08:33:19.702Z,19.71
2022-10-18T08:35:56.651Z,19.80
2022-10-18T08:38:31.809Z,19.89
2022-10-18T08:41:29.623Z,19.98
2022-10-18T08:44:09.315Z,20.08
2022-10-18T08:46:45.970Z,20.17
2022-10-18T08:49:26.757Z,20.26
2022-10-18T08:52:00.018Z,20.33
2022-10-18T08:54:38.682Z,20.45
2022-10-18T08:57:15.786Z,20.53
2022-10-18T08:59:50.156Z,20.62
2022-10-18T09:02:37.408Z,20.74
2022-10-18T09:05:23.930Z,20.82
2022-10-18T09:08:24.291Z,20.93
2022-10-18T09:11:08.714Z,21.04
2022-10-18T09:14:04.410Z,21.16
2022-10-18T09:16:46.827Z,21.27
2022-10-18T09:19:45.199Z,21.38
2022-10-18T09:22:20.739Z,21.50
2022-10-18T09:25:01.650Z,21.64
2022-10-18T09:27:43.399Z,21.75
2022-10-18T09:30:24.326Z,21.86
2022-10-18T09:33:06.286Z,21.99
2022-10-18T09:35:43.480Z,22.07
2022-10-18T09:38:22.641Z,22.18
2022-10-18T09:41:00.139Z,22.31
2022-10-18T09:43:47.087Z,22.41
2022-10-18T09:46:21.676Z,22.47
2022-10-18T09:49:00.334Z,22.58
2022-10-18T09:51:37.534Z,22.66
2022-10-18T09:54:23.179Z,22.76
2022-10-18T09:57:03.578Z,22.82
2022-10-18T09:59:39.754Z,22.89
2022-10-18T10:02:15.280Z,22.97
2022-10-18T10:04:49.863Z,23.04
2022-10-18T10:07:29.946Z,23.10
2022-10-18T10:10:09.563Z,23.14
2022-10-18T10:12:42.745Z,23.20
2022-10-18T10:15:21.233Z,23.26
2022-10-18T10:17:59.261Z,23.31
2022-10-18T10:20:37.519Z,23.35
2022-10-18T10:25:53.524Z,23.43
2022-10-18T10:28:30.074Z,23.46
2022-10-18T10:31:19.884Z,23.50
2022-10-18T10:34:00.704Z,23.54
2022-10-18T10:36:35.285Z,23.56
2022-10-18T10:39:12.633Z,23.61
2022-10-18T10:41:49.427Z,23.65
2022-10-18T10:44:24.577Z,23.68
2022-10-18T10:46:58.593Z,23.72
2022-10-18T10:49:44.438Z,23.78
2022-10-18T10:52:28.815Z,23.81
2022-10-18T10:55:23.601Z,23.87
2022-10-18T10:57:57.351Z,23.95
2022-10-18T11:00:39.159Z,24.04
2022-10-18T11:03:30.022Z,24.10
2022-10-18T11:06:03.174Z,24.16
2022-10-18T11:08:42.337Z,24.26
2022-10-18T11:11:23.040Z,24.32
2022-10-18T11:14:24.820Z,24.41
2022-10-18T11:17:08.074Z,24.47
2022-10-18T11:19:53.072Z,24.53
2022-10-18T11:22:29.009Z,24.57
2022-10-18T11:25:05.013Z,24.63
2022-10-18T11:27:44.033Z,24.65
2022-10-18T11:30:46.440Z,24.71
2022-10-18T11:33:50.161Z,24.70
2022-10-18T11:36:25.698Z,24.70
2022-10-18T11:39:05.417Z,24.69
2022-10-18T11:41:46.239Z,24.67
2022-10-18T11:44:29.162Z,24.64
2022-10-18T11:47:12.254Z,24.62
2022-10-18T11:50:02.422Z,24.61
2022-10-18T11:52:44.049Z,24.58
2022-10-18T11:55:33.136Z,24.54
2022-10-18T11:58:25.116Z,24.59
2022-10-18T12:01:02.652Z,24.56
2022-10-18T12:03:46.552Z,24.61
2022-10-18T12:06:23.340Z,24.63
2022-10-18T12:09:00.673Z,24.67
2022-10-18T12:11:43.953Z,24.69
2022-10-18T12:14:25.595Z,24.72
2022-10-18T12:17:35.903Z,24.73
2022-10-18T12:20:00.660Z,24.73
2022-10-18T12:22:37.713Z,24.75
2022-10-18T12:25:14.335Z,24.74
2022-10-18T12:27:53.167Z,24.74
2022-10-18T12:30:37.000Z,24.73
2022-10-18T12:33:27.811Z,24.71
2022-10-18T12:36:06.660Z,24.66
2022-10-18T12:38:43.723Z,24.68
2022-10-18T12:41:22.262Z,24.66
2022-10-18T12:44:00.054Z,24.61
2022-10-18T12:46:50.088Z,24.59
2022-10-18T12:49:28.736Z,24.55
2022-10-18T12:52:05.777Z,24.52
2022-10-18T12:54:40.671Z,24.47
2022-10-18T12:57:24.864Z,24.47
2022-10-18T12:59:57.724Z,24.43
2022-10-18T13:02:33.041Z,24.42
2022-10-18T13:05:48.924Z,24.42
2022-10-18T13:08:43.533Z,24.41
2022-10-18T13:11:36.189Z,24.40
2022-10-18T13:14:53.541Z,24.39
2022-10-18T13:17:45.112Z,24.37
2022-10-18T13:20:27.428Z,24.37
2022-10-18T13:23:11.866Z,24.35
2022-10-18T13:25:55.563Z,24.35
2022-10-18T13:28:37.290Z,24.33
2022-10-18T13:31:20.619Z,24.31
2022-10-18T13:33:54.881Z,24.28
2022-10-18T13:36:33.816Z,24.27
2022-10-18T13:39:07.209Z,24.24
2022-10-18T13:42:13.455Z,24.25
2022-10-18T13:44:47.151Z,24.19
2022-10-18T13:47:40.998Z,24.20
2022-10-18T13:50:39.360Z,24.16
2022-10-18T13:53:34.730Z,24.12
2022-10-18T13:56:32.753Z,24.11
2022-10-18T13:59:22.885Z,24.09
2022-10-18T14:02:15.143Z,24.09
2022-10-18T14:05:24.690Z,24.08
2022-10-18T14:08:08.139Z,24.06
2022-10-18T14:11:01.763Z,24.05
2022-10-18T14:13:44.389Z,24.03
2022-10-18T14:16:41.142Z,24.00
2022-10-18T14:19:20.966Z,23.99
2022-10-18T14:22:00.069Z,23.96
2022-10-18T14:24:35.396Z,23.91
2022-10-18T14:27:18.113Z,23.91
2022-10-18T14:29:52.338Z,23.87
2022-10-18T14:32:28.905Z,23.86
2022-10-18T14:35:27.559Z,23.83
2022-10-18T14:37:56.576Z,23.81
2022-10-18T14:40:42.710Z,23.80
2022-10-18T14:43:19.959Z,23.75
2022-10-18T14:48:25.998Z,23.69
2022-10-18T14:51:00.677Z,23.65
2022-10-18T14:53:38.385Z,23.62
2022-10-18T14:56:23.120Z,23.58
2022-10-18T14:58:57.948Z,23.53
2022-10-18T15:01:33.352Z,23.50
2022-10-18T15:04:10.820Z,23.46
2022-10-18T15:06:45.141Z,23.41
2022-10-18T15:09:24.198Z,23.39
2022-10-18T15:12:00.712Z,23.36
2022-10-18T15:14:34.522Z,23.31
2022-10-18T15:17:13.954Z,23.29
2022-10-18T15:19:59.361Z,23.25
2022-10-18T15:22:35.120Z,23.20
2022-10-18T15:25:15.608Z,23.17
2022-10-18T15:27:52.456Z,23.13
2022-10-18T15:30:28.168Z,23.09
2022-10-18T15:33:02.681Z,23.04
2022-10-18T15:35:37.720Z,23.01
2022-10-18T15:38:16.884Z,22.98
2022-10-18T15:40:49.813Z,22.90
2022-10-18T15:43:38.006Z,22.89
2022-10-18T15:46:31.185Z,22.83
2022-10-18T15:49:37.420Z,22.79
2022-10-18T15:52:38.634Z,22.74
2022-10-18T15:55:57.944Z,22.67
2022-10-18T15:58:39.156Z,22.61
2022-10-18T16:01:19.367Z,22.57
2022-10-18T16:06:30.732Z,22.44
2022-10-18T16:09:03.578Z,22.39
2022-10-18T16:11:36.428Z,22.32
2022-10-18T16:14:09.444Z,22.25
2022-10-18T16:16:44.313Z,22.18
2022-10-18T16:19:21.224Z,22.12
2022-10-18T16:21:56.128Z,22.04
2022-10-18T16:24:29.115Z,21.95
2022-10-18T16:27:02.082Z,21.85
2022-10-18T16:29:34.884Z,21.75
2022-10-18T16:32:09.277Z,21.67
2022-10-18T16:34:42.214Z,21.56
2022-10-18T16:37:15.077Z,21.45
2022-10-18T16:39:47.936Z,21.35
2022-10-18T16:42:20.799Z,21.25
2022-10-18T16:44:54.994Z,21.16
2022-10-18T16:47:29.461Z,21.08
2022-10-18T16:50:06.541Z,20.96
2022-10-18T16:52:39.764Z,20.87
2022-10-18T16:55:21.451Z,20.78
2022-10-18T16:57:54.063Z,20.70
2022-10-18T17:00:26.902Z,20.64
2022-10-18T17:03:01.364Z,20.57
2022-10-18T17:05:34.374Z,20.48
2022-10-18T17:08:07.754Z,20.38
2022-10-18T17:10:40.591Z,20.27
2022-10-18T17:13:13.439Z,20.19
2022-10-18T17:15:46.751Z,20.13
2022-10-18T17:18:23.195Z,20.06
2022-10-18T17:20:56.642Z,19.96
2022-10-18T17:23:29.550Z,19.89
2022-10-18T17:26:26.330Z,19.81
2022-10-18T17:28:57.701Z,19.74
2022-10-18T17:31:32.113Z,19.66
2022-10-18T17:34:06.549Z,19.60
2022-10-18T17:36:39.432Z,19.52
2022-10-18T17:39:12.502Z,19.46
2022-10-18T17:41:45.305Z,19.37
2022-10-18T17:44:18.465Z,19.30
2022-10-18T17:46:51.421Z,19.22
2022-10-18T17:49:26.029Z,19.15
2022-10-18T17:52:01.147Z,19.07
2022-10-18T17:54:37.360Z,19.00
2022-10-18T17:57:10.212Z,18.94
2022-10-18T17:59:43.170Z,18.89
2022-10-18T18:02:15.995Z,18.84
2022-10-18T18:04:50.155Z,18.82
2022-10-18T18:07:23.008Z,18.76
2022-10-18T18:09:57.016Z,18.75
2022-10-18T18:12:30.107Z,18.73
2022-10-18T18:15:03.154Z,18.70
2022-10-18T18:17:56.033Z,18.70
2022-10-18T18:20:30.803Z,18.72
2022-10-18T18:23:03.678Z,18.67
2022-10-18T18:25:36.523Z,18.66
2022-10-18T18:28:09.375Z,18.65
2022-10-18T18:30:42.263Z,18.63
2022-10-18T18:33:15.178Z,18.62
2022-10-18T18:35:57.435Z,18.64
2022-10-18T18:38:30.348Z,18.59
2022-10-18T18:41:06.743Z,18.62
2022-10-18T18:43:40.868Z,18.59
2022-10-18T18:46:14.019Z,18.55
2022-10-18T18:48:46.903Z,18.52
2022-10-18T18:51:22.970Z,18.50
2022-10-18T18:53:56.259Z,18.47
2022-10-18T18:56:30.100Z,18.45
2022-10-18T18:59:03.359Z,18.44
2022-10-18T19:01:39.003Z,18.42
2022-10-18T19:04:12.306Z,18.38
2022-10-18T19:06:47.049Z,18.35
2022-10-18T19:09:22.798Z,18.31
2022-10-18T19:11:57.225Z,18.26
2022-10-18T19:14:30.101Z,18.23
2022-10-18T19:17:07.060Z,18.19
2022-10-18T19:19:40.915Z,18.17
2022-10-18T19:22:15.314Z,18.12
2022-10-18T19:24:48.136Z,18.05
2022-10-18T19:27:21.081Z,18.01
2022-10-18T19:29:53.961Z,17.97
2022-10-18T19:32:29.840Z,17.92
2022-10-18T19:35:02.693Z,17.87
2022-10-18T19:37:37.016Z,17.82
2022-10-18T19:40:10.769Z,17.74
2022-10-18T19:42:43.829Z,17.69
2022-10-18T19:45:16.725Z,17.62
2022-10-18T19:47:49.727Z,17.58
2022-10-18T19:50:22.566Z,17.50
2022-10-18T19:52:56.884Z,17.47
2022-10-18T19:55:30.329Z,17.41
2022-10-18T19:58:03.492Z,17.37
2022-10-18T20:00:36.383Z,17.32
2022-10-18T20:03:09.205Z,17.28
2022-10-18T20:05:43.339Z,17.24
2022-10-18T20:08:18.198Z,17.21
2022-10-18T20:10:51.189Z,17.18
2022-10-18T20:13:25.062Z,17.19
2022-10-18T20:15:57.982Z,17.18
2022-10-18T20:18:33.162Z,17.18
2022-10-18T20:21:06.972Z,17.16
2022-10-18T20:23:42.678Z,17.15
2022-10-18T20:26:20.460Z,17.12
2022-10-18T20:28:56.936Z,17.11
2022-10-18T20:31:31.640Z,17.10
2022-10-18T20:34:07.253Z,17.11
2022-10-18T20:36:41.534Z,17.07
2022-10-18T20:39:15.975Z,17.08
2022-10-18T20:41:49.235Z,17.07
2022-10-18T20:44:22.756Z,17.05
2022-10-18T20:46:55.530Z,17.05
2022-10-18T20:49:28.326Z,17.03
2022-10-18T20:52:01.358Z,16.98
2022-10-18T20:54:35.644Z,16.94
2022-10-18T20:57:08.425Z,16.89
2022-10-18T20:59:41.709Z,16.87
2022-10-18T21:02:14.752Z,16.80
2022-10-18T21:04:47.696Z,16.76
2022-10-18T21:07:20.509Z,16.73
2022-10-18T21:09:54.911Z,16.71
2022-10-18T21:12:29.060Z,16.66
2022-10-18T21:15:02.161Z,16.60
2022-10-18T21:17:35.037Z,16.57
2022-10-18T21:20:09.799Z,16.55
2022-10-18T21:22:42.680Z,16.49
2022-10-18T21:25:17.270Z,16.48
2022-10-18T21:27:50.104Z,16.43
2022-10-18T21:30:23.565Z,16.42
2022-10-18T21:32:56.402Z,16.40
2022-10-18T21:35:29.292Z,16.38
2022-10-18T21:38:02.096Z,16.34
2022-10-18T21:40:39.814Z,16.32
2022-10-18T21:43:12.821Z,16.26
2022-10-18T21:45:45.739Z,16.22
2022-10-18T21:48:18.570Z,16.18
2022-10-18T21:50:52.705Z,16.15
2022-10-18T21:53:25.567Z,16.11
2022-10-18T21:56:05.731Z,16.09
2022-10-18T21:58:38.955Z,16.02
2022-10-18T22:01:13.570Z,15.99
2022-10-18T22:03:48.741Z,15.96
2022-10-18T22:06:22.228Z,15.93
2022-10-18T22:08:57.979Z,15.91
2022-10-18T22:11:35.204Z,15.89
2022-10-18T22:14:08.071Z,15.85
2022-10-18T22:16:40.918Z,15.82
2022-10-18T22:19:14.094Z,15.78
2022-10-18T22:21:47.206Z,15.76
2022-10-18T22:24:20.138Z,15.71
2022-10-18T22:26:54.321Z,15.70
2022-10-18T22:29:27.139Z,15.68
2022-10-18T22:32:01.971Z,15.64
2022-10-18T22:34:34.856Z,15.60
2022-10-18T22:37:07.768Z,15.58
2022-10-18T22:39:40.566Z,15.55
2022-10-18T22:42:14.954Z,15.52
2022-10-18T22:44:47.860Z,15.47
2022-10-18T22:47:21.072Z,15.44
2022-10-18T22:49:53.876Z,15.40
2022-10-18T22:52:26.794Z,15.37
2022-10-18T22:54:59.566Z,15.34
2022-10-18T22:57:33.828Z,15.32
2022-10-18T23:00:08.010Z,15.27
2022-10-18T23:02:40.897Z,15.26
2022-10-18T23:05:13.728Z,15.25
2022-10-18T23:07:49.881Z,15.23
2022-10-18T23:10:22.710Z,15.19
2022-10-18T23:12:56.902Z,15.18
2022-10-18T23:15:29.728Z,15.15
2022-10-18T23:18:03.166Z,15.12
2022-10-18T23:20:36.001Z,15.11
2022-10-18T23:23:08.853Z,15.10
2022-10-18T23:25:42.352Z,15.10
2022-10-18T23:28:16.576Z,15.07
2022-10-18T23:30:49.337Z,15.04
2022-10-18T23:33:22.614Z,15.03
2022-10-18T23:35:55.429Z,15.01
2022-10-18T23:38:29.743Z,15.02
2022-10-18T23:41:02.538Z,15.02
2022-10-18T23:43:37.211Z,15.02
2022-10-18T23:46:10.682Z,15.00
2022-10-18T23:48:43.834Z,14.98
2022-10-18T23:51:17.707Z,14.96
2022-10-18T23:53:50.754Z,14.95
2022-10-18T23:56:23.708Z,14.94
2022-10-18T23:58:57.959Z,14.93
